M I D A S
Marine Information and Data Acquisition System
Tripno 2025 of the Zeeleeuw from 2010-10-26 07:02:43 to 2010-10-26 15:31:46
Back to CruiseResearch ActivitiesStationsMapUnderway DataData graphs

EquipmentUnitsComment
TimeDGPSUTC
LatitudeDGPSDM.mWGS84
LongitudeDGPSDM.mWGS84
HeadingGyrodeg 
SOGDGPSknotsSpeed over ground
COGDGPSdegCourse over ground
DepthEcho soundermeters200 kHz
Missing or incorrect values are displayed as -999
Navigation data collected by the RV Zeeleeuw from 2010-10-26 06:59:19 to 2010-10-26 15:36:40
Time Latitude Longitude Heading SOG COG Depth
2010-10-26 07:00:22 51°13.662 2°55.961 123.9 -999 294 7
2010-10-26 07:01:20 51°13.662 2°55.961 124.1 0.2 200 7
2010-10-26 07:02:20 51°13.662 2°55.96 123.7 0.1 174 7.1
2010-10-26 07:03:20 51°13.663 2°55.961 124.2 0.1 339 7
2010-10-26 07:04:20 51°13.663 2°55.96 124.5 0.1 356 7
2010-10-26 07:05:20 51°13.664 2°55.96 124.9 0.1 318 7
2010-10-26 07:06:20 51°13.663 2°55.96 125 -999 224 7
2010-10-26 07:07:20 51°13.663 2°55.96 124.8 -999 155 7
2010-10-26 07:08:20 51°13.662 2°55.96 113.5 0.1 178 7.1
2010-10-26 07:09:20 51°13.666 2°55.946 107.7 1.8 296 7.1
2010-10-26 07:10:24 51°13.684 2°55.847 97.2 4.3 281 -999
2010-10-26 07:11:23 51°13.689 2°55.756 76.1 1.5 270 12
2010-10-26 07:12:22 51°13.701 2°55.752 25.3 1.2 359 12.7
2010-10-26 07:13:21 51°13.735 2°55.729 326 3.7 325 10.9
2010-10-26 07:14:20 51°13.812 2°55.642 329.2 7.3 330 10.8
2010-10-26 07:15:20 51°13.935 2°55.552 336.1 8.5 335 9.7
2010-10-26 07:16:22 51°14.074 2°55.454 334.4 9.2 335 9.2
2010-10-26 07:17:24 51°14.222 2°55.327 331.3 10.1 331 -999
2010-10-26 07:18:24 51°14.372 2°55.184 329.6 11.2 330 8.8
2010-10-26 07:19:23 51°14.532 2°55.02 327.2 11.9 327 10.3
2010-10-26 07:20:20 51°14.683 2°54.839 332 11.8 326 10.4
2010-10-26 07:21:20 51°14.849 2°54.673 333.7 11.6 329 10.5
2010-10-26 07:22:20 51°15.022 2°54.552 351.8 11 348 8.4
2010-10-26 07:23:20 51°15.197 2°54.484 336.4 11.3 326 7.9
2010-10-26 07:24:20 51°15.341 2°54.281 320.2 11.9 313 8.4
2010-10-26 07:25:20 51°15.461 2°54.08 318.4 8.6 315 9.4
2010-10-26 07:26:20 51°15.541 2°53.932 315.2 6.7 311 9.4
2010-10-26 07:27:20 51°15.607 2°53.809 316 5.8 311 10.1
2010-10-26 07:28:20 51°15.672 2°53.69 316.4 6.3 312 10.3
2010-10-26 07:29:20 51°15.748 2°53.573 322.3 6.2 316 10.6
2010-10-26 07:30:20 51°15.823 2°53.463 327.4 6.1 318 10.7
2010-10-26 07:31:20 51°15.899 2°53.357 330.6 6 320 10.5
2010-10-26 07:32:20 51°15.978 2°53.259 333.5 6.1 322 10.7
2010-10-26 07:33:20 51°16.059 2°53.162 333.2 6.1 324 10.8
2010-10-26 07:34:20 51°16.139 2°53.066 332.6 6 323 10.8
2010-10-26 07:35:20 51°16.221 2°52.971 333.2 6 324 10.9
2010-10-26 07:36:20 51°16.306 2°52.884 339.8 6.3 331 11
2010-10-26 07:37:20 51°16.4 2°52.807 340.3 6.5 333 11
2010-10-26 07:38:20 51°16.496 2°52.728 339.9 6.5 333 10.8
2010-10-26 07:39:20 51°16.592 2°52.65 340 6.5 334 10.2
2010-10-26 07:40:20 51°16.692 2°52.596 351.4 6.4 344 9.5
2010-10-26 07:41:20 51°16.794 2°52.554 350.6 6.4 344 9.1
2010-10-26 07:42:20 51°16.895 2°52.507 349.5 6.2 344 8.9
2010-10-26 07:43:20 51°16.994 2°52.459 349.2 6.2 343 8.6
2010-10-26 07:44:20 51°17.092 2°52.411 349.6 6.2 342 8.8
2010-10-26 07:45:20 51°17.191 2°52.364 349.3 6.2 342 9.4
2010-10-26 07:46:20 51°17.289 2°52.326 359.1 6.1 352 9.7
2010-10-26 07:47:20 51°17.39 2°52.316 2.9 5.9 357 9.2
2010-10-26 07:48:20 51°17.489 2°52.303 1.7 5.8 356 9.3
2010-10-26 07:49:20 51°17.589 2°52.286 0.7 6 355 9.4
2010-10-26 07:50:20 51°17.687 2°52.268 0.5 5.9 353 9.4
2010-10-26 07:51:20 51°17.786 2°52.25 0.1 6.1 353 9.9
2010-10-26 07:52:20 51°17.886 2°52.232 0.2 6.1 354 10.2
2010-10-26 07:53:20 51°17.985 2°52.211 0.4 6.2 353 10.2
2010-10-26 07:54:20 51°18.087 2°52.192 0.4 6.2 355 10.4
2010-10-26 07:55:20 51°18.188 2°52.171 0.1 6.3 353 10.4
2010-10-26 07:56:20 51°18.289 2°52.149 0.1 6.3 353 10.6
2010-10-26 07:57:20 51°18.389 2°52.127 359.8 6 351 10.4
2010-10-26 07:58:20 51°18.489 2°52.104 0.6 6.1 352 10.6
2010-10-26 07:59:20 51°18.591 2°52.083 0.4 6.2 353 11.1
2010-10-26 08:00:20 51°18.693 2°52.061 -999 6.2 352 11.5
2010-10-26 08:01:20 51°18.793 2°52.04 0.2 6.1 353 12.2
2010-10-26 08:02:20 51°18.894 2°52.017 -999 6.2 352 12.8
2010-10-26 08:03:20 51°18.995 2°51.992 0.2 6.1 352 13
2010-10-26 08:04:20 51°19.098 2°51.969 0.1 6.3 351 13.5
2010-10-26 08:05:20 51°19.199 2°51.942 0.8 6.2 352 14.3
2010-10-26 08:06:20 51°19.3 2°51.915 0.5 6.1 351 14.4
2010-10-26 08:07:20 51°19.401 2°51.888 359.9 6.1 350 14.4
2010-10-26 08:08:20 51°19.501 2°51.858 0.1 6.1 350 14.7
2010-10-26 08:09:20 51°19.602 2°51.829 0.2 6 349 15.1
2010-10-26 08:10:20 51°19.702 2°51.8 0.8 6.1 350 15
2010-10-26 08:11:20 51°19.802 2°51.773 0.8 6.1 351 14.8
2010-10-26 08:12:20 51°19.903 2°51.746 359.8 6.2 351 14.2
2010-10-26 08:13:20 51°20.002 2°51.716 359.8 6.1 349 13.6
2010-10-26 08:14:21 51°20.104 2°51.685 359.4 6.1 350 11.9
2010-10-26 08:15:20 51°20.203 2°51.657 1.6 6.1 350 12.5
2010-10-26 08:16:20 51°20.303 2°51.629 0.3 6.1 349 12.2
2010-10-26 08:17:20 51°20.403 2°51.598 0.2 6.2 350 12.9
2010-10-26 08:18:21 51°20.506 2°51.567 -999 6.3 350 13.3
2010-10-26 08:19:21 51°20.608 2°51.538 0.8 6.1 349 14.9
2010-10-26 08:20:21 51°20.708 2°51.511 359 6.2 348 14.6
2010-10-26 08:21:21 51°20.809 2°51.48 359.4 6 350 16
2010-10-26 08:22:20 51°20.907 2°51.455 0.9 6.1 350 17
2010-10-26 08:23:21 51°21.01 2°51.428 0.5 6.2 351 17.9
2010-10-26 08:24:21 51°21.111 2°51.402 359.3 6.2 351 19.4
2010-10-26 08:25:21 51°21.212 2°51.373 0.1 6.2 350 20.9
2010-10-26 08:26:21 51°21.312 2°51.345 359.9 6.1 351 21.8
2010-10-26 08:27:21 51°21.413 2°51.321 359.6 6.3 351 22.7
2010-10-26 08:28:21 51°21.514 2°51.294 0.3 6.1 352 23.2
2010-10-26 08:29:20 51°21.613 2°51.269 0.5 6.1 352 23
2010-10-26 08:30:20 51°21.715 2°51.242 0.2 6.2 350 23.4
2010-10-26 08:31:20 51°21.816 2°51.215 0.8 6.1 351 23.1
2010-10-26 08:32:21 51°21.917 2°51.188 0.7 6.1 350 22.7
2010-10-26 08:33:21 51°22.017 2°51.165 1.1 6.1 352 22.2
2010-10-26 08:34:21 51°22.117 2°51.142 0.1 6.1 352 21.6
2010-10-26 08:35:21 51°22.216 2°51.126 4.2 5.9 359 21.8
2010-10-26 08:36:20 51°22.312 2°51.119 4.7 5.9 357 22
2010-10-26 08:37:21 51°22.413 2°51.107 4.4 5.9 355 22
2010-10-26 08:38:20 51°22.508 2°51.096 4.3 6 354 21.9
2010-10-26 08:39:21 51°22.607 2°51.084 4.9 5.8 355 21.6
2010-10-26 08:40:21 51°22.703 2°51.071 4.6 5.8 355 22.1
2010-10-26 08:41:21 51°22.798 2°51.06 4.5 5.7 357 21.6
2010-10-26 08:42:21 51°22.895 2°51.048 4.4 6.2 355 20.8
2010-10-26 08:43:21 51°22.996 2°51.041 4.8 6.3 359 17.1
2010-10-26 08:44:21 51°23.098 2°51.035 4.5 6.1 357 14.8
2010-10-26 08:45:21 51°23.199 2°51.029 5.4 5.9 357 15
2010-10-26 08:46:21 51°23.3 2°51.022 3.7 6.2 357 12.7
2010-10-26 08:47:21 51°23.401 2°51.015 4.2 6.2 358 15
2010-10-26 08:48:21 51°23.503 2°51.008 4.4 6 359 14.3
2010-10-26 08:49:21 51°23.605 2°50.996 2.7 6.1 355 15.6
2010-10-26 08:50:21 51°23.706 2°50.988 4.3 6.2 356 18.4
2010-10-26 08:51:21 51°23.809 2°50.977 4.1 6.3 354 18.1
2010-10-26 08:52:20 51°23.91 2°50.967 3.1 6.3 357 20
2010-10-26 08:53:21 51°24.016 2°50.956 4.6 6.3 355 20.4
2010-10-26 08:54:20 51°24.117 2°50.945 3.7 6.2 356 21.2
2010-10-26 08:55:21 51°24.221 2°50.934 4.3 6.1 358 20.7
2010-10-26 08:56:20 51°24.322 2°50.922 3.1 6.1 357 21.4
2010-10-26 08:57:21 51°24.423 2°50.913 4.3 6.1 358 21
2010-10-26 08:58:20 51°24.524 2°50.899 3.7 6.2 354 21.9
2010-10-26 08:59:20 51°24.624 2°50.885 4.5 5.7 355 22
2010-10-26 09:00:21 51°24.724 2°50.872 5.2 6.1 357 21.8
2010-10-26 09:01:21 51°24.825 2°50.86 3.5 5.9 354 22.3
2010-10-26 09:02:21 51°24.928 2°50.844 4.4 6.4 353 21.9
2010-10-26 09:03:20 51°25.024 2°50.83 4 5.8 353 22.3
2010-10-26 09:04:21 51°25.125 2°50.814 4.2 5.9 352 22.2
2010-10-26 09:05:20 51°25.222 2°50.799 4.6 6 352 22.2
2010-10-26 09:06:21 51°25.325 2°50.785 3.7 6 356 22.9
2010-10-26 09:07:21 51°25.426 2°50.769 4.4 6.2 355 22.9
2010-10-26 09:08:20 51°25.525 2°50.754 4.2 6.1 355 22.6
2010-10-26 09:09:21 51°25.626 2°50.738 4.9 6.1 357 23
2010-10-26 09:10:20 51°25.724 2°50.72 4.1 6.2 354 22.2
2010-10-26 09:11:21 51°25.826 2°50.705 4.9 5.9 358 22.9
2010-10-26 09:12:21 51°25.929 2°50.687 4 6.3 354 22.8
2010-10-26 09:13:21 51°26.03 2°50.672 3.8 6.2 355 23.1
2010-10-26 09:14:20 51°26.131 2°50.655 3.6 6.3 354 22.8
2010-10-26 09:15:20 51°26.235 2°50.639 4.4 6.4 353 23
2010-10-26 09:16:20 51°26.34 2°50.623 5 6.3 355 23.2
2010-10-26 09:17:21 51°26.444 2°50.611 4.7 6.3 356 23.5
2010-10-26 09:18:21 51°26.549 2°50.596 4.4 6.2 356 23.1
2010-10-26 09:19:21 51°26.653 2°50.583 4.9 6.2 356 22.3
2010-10-26 09:20:21 51°26.756 2°50.571 4.2 6.1 357 19.3
2010-10-26 09:21:21 51°26.86 2°50.56 5.3 6.3 359 19.7
2010-10-26 09:22:21 51°26.962 2°50.551 3.3 6.1 358 17.5
2010-10-26 09:23:20 51°27.062 2°50.538 3.7 6.2 357 17.7
2010-10-26 09:24:21 51°27.164 2°50.528 4.7 6 357 19.9
2010-10-26 09:25:21 51°27.265 2°50.518 4.2 6 357 22
2010-10-26 09:26:21 51°27.365 2°50.503 3.7 6 355 21.3
2010-10-26 09:27:21 51°27.466 2°50.49 4.3 6.2 357 22.6
2010-10-26 09:28:20 51°27.566 2°50.478 4.1 6.1 355 23.8
2010-10-26 09:29:20 51°27.664 2°50.467 4.8 6 356 23.8
2010-10-26 09:30:20 51°27.765 2°50.452 4.3 6.3 351 25.8
2010-10-26 09:31:20 51°27.865 2°50.437 3.8 6 355 27.8
2010-10-26 09:32:20 51°27.965 2°50.422 5.5 5.9 356 27
2010-10-26 09:33:20 51°28.064 2°50.407 3.9 5.9 354 26.3
2010-10-26 09:34:20 51°28.164 2°50.39 3.2 6.2 356 26.9
2010-10-26 09:35:20 51°28.265 2°50.37 5.4 6.1 354 26.8
2010-10-26 09:36:20 51°28.365 2°50.353 5.7 6.1 353 27
2010-10-26 09:37:20 51°28.464 2°50.333 3.8 5.8 350 26.5
2010-10-26 09:38:20 51°28.561 2°50.315 3.7 6 353 26
2010-10-26 09:39:20 51°28.661 2°50.295 5.3 6.1 354 25.5
2010-10-26 09:40:20 51°28.76 2°50.278 7 5.9 358 25.8
2010-10-26 09:41:20 51°28.854 2°50.303 21.8 5.7 19 25.9
2010-10-26 09:42:20 51°28.952 2°50.35 22.5 6.3 18 25.6
2010-10-26 09:43:20 51°29.056 2°50.394 21.4 6.7 16 27.9
2010-10-26 09:44:20 51°29.165 2°50.439 19.7 6.6 11 27.6
2010-10-26 09:45:20 51°29.274 2°50.478 18.5 6.7 16 27.5
2010-10-26 09:46:20 51°29.382 2°50.515 19.2 6.7 12 29.3
2010-10-26 09:47:20 51°29.485 2°50.579 37.6 6.5 35 30.7
2010-10-26 09:48:20 51°29.533 2°50.727 77 6.4 77 30.6
2010-10-26 09:49:20 51°29.524 2°50.899 99.3 6.6 107 30.7
2010-10-26 09:50:20 51°29.482 2°51.063 112 6.8 123 28.1
2010-10-26 09:51:20 51°29.411 2°51.207 123.2 7.2 135 28.1
2010-10-26 09:52:20 51°29.319 2°51.326 133.6 6.8 143 28.2
2010-10-26 09:53:20 51°29.233 2°51.428 133.1 6.1 143 27.1
2010-10-26 09:54:20 51°29.149 2°51.521 141 6.2 157 28.7
2010-10-26 09:55:20 51°29.048 2°51.56 164.8 6.3 177 30.7
2010-10-26 09:56:20 51°28.94 2°51.55 177.8 6.6 186 30.5
2010-10-26 09:57:20 51°28.831 2°51.529 177.1 6.8 188 28.9
2010-10-26 09:58:20 51°28.721 2°51.504 177.9 6.3 189 28.1
2010-10-26 09:59:20 51°28.618 2°51.478 178.3 6.3 189 28
2010-10-26 10:00:20 51°28.515 2°51.452 177.9 6.2 189 27.4
2010-10-26 10:01:20 51°28.413 2°51.427 177.9 6.2 188 27.7
2010-10-26 10:02:20 51°28.311 2°51.401 178.3 6.2 191 26.1
2010-10-26 10:03:20 51°28.209 2°51.372 178.9 6 189 25.1
2010-10-26 10:04:20 51°28.109 2°51.348 177.2 6.1 191 25.7
2010-10-26 10:05:20 51°28.012 2°51.325 177.9 5.9 188 25.2
2010-10-26 10:06:20 51°27.917 2°51.303 178.2 5.8 191 24
2010-10-26 10:07:20 51°27.82 2°51.28 177.9 6 188 23.5
2010-10-26 10:08:20 51°27.72 2°51.256 179.2 6.3 187 23
2010-10-26 10:09:20 51°27.624 2°51.239 176.7 5.3 184 20.9
2010-10-26 10:10:20 51°27.529 2°51.221 179.6 6 186 21
2010-10-26 10:11:20 51°27.431 2°51.2 179.7 5.8 190 19.5
2010-10-26 10:12:20 51°27.33 2°51.176 178.1 6.4 190 20.1
2010-10-26 10:13:20 51°27.225 2°51.157 177.6 6.3 186 19.5
2010-10-26 10:14:20 51°27.119 2°51.136 178.6 6.4 187 19.9
2010-10-26 10:15:20 51°27.016 2°51.117 178.6 6.1 184 18.7
2010-10-26 10:16:20 51°26.918 2°51.101 178.4 5.9 183 20.4
2010-10-26 10:17:20 51°26.821 2°51.084 179.4 6 185 22.3
2010-10-26 10:18:20 51°26.724 2°51.068 179.1 5.8 187 25.3
2010-10-26 10:19:20 51°26.626 2°51.053 177.4 6 187 24.2
2010-10-26 10:20:20 51°26.527 2°51.036 178.7 6.2 189 25.1
2010-10-26 10:21:20 51°26.428 2°51.018 178.3 6 185 24.7
2010-10-26 10:22:20 51°26.33 2°51 178.5 5.9 186 23.4
2010-10-26 10:23:20 51°26.232 2°50.983 178.7 6.1 188 23.5
2010-10-26 10:24:20 51°26.132 2°50.967 179.2 5.9 186 22.9
2010-10-26 10:25:20 51°26.033 2°50.948 178.7 5.9 186 23.9
2010-10-26 10:26:20 51°25.936 2°50.928 178.6 6.1 189 23.5
2010-10-26 10:27:20 51°25.836 2°50.913 178.2 6.1 185 23.7
2010-10-26 10:28:20 51°25.734 2°50.892 179.1 6.2 190 23.7
2010-10-26 10:29:20 51°25.632 2°50.864 177.8 6.2 188 23.8
2010-10-26 10:30:20 51°25.531 2°50.842 177.4 5.9 187 23.6
2010-10-26 10:31:20 51°25.434 2°50.822 177.9 5.9 188 23.5
2010-10-26 10:32:20 51°25.338 2°50.798 178.6 6 189 23.4
2010-10-26 10:33:20 51°25.244 2°50.779 177.6 5.9 190 23.3
2010-10-26 10:34:20 51°25.148 2°50.757 177.2 5.8 186 23.5
2010-10-26 10:35:20 51°25.055 2°50.738 178.6 5.6 189 22.8
2010-10-26 10:36:20 51°24.959 2°50.715 179.7 6 189 22.8
2010-10-26 10:37:20 51°24.86 2°50.695 175.5 5.6 183 22.8
2010-10-26 10:38:20 51°24.765 2°50.677 178 5.8 190 23
2010-10-26 10:39:20 51°24.666 2°50.652 178.3 6.1 188 23.3
2010-10-26 10:40:20 51°24.567 2°50.633 178.5 6 188 23
2010-10-26 10:41:20 51°24.469 2°50.608 178.4 6.2 192 22.9
2010-10-26 10:42:20 51°24.369 2°50.589 177.2 6.2 183 22.9
2010-10-26 10:43:20 51°24.267 2°50.569 176.6 6.1 185 22.1
2010-10-26 10:44:20 51°24.168 2°50.55 179.6 6.1 189 22.4
2010-10-26 10:45:20 51°24.065 2°50.528 178 6.2 188 22.2
2010-10-26 10:46:20 51°23.962 2°50.51 178.2 6.1 188 22.2
2010-10-26 10:47:20 51°23.862 2°50.494 177.9 6.1 186 22.2
2010-10-26 10:48:20 51°23.761 2°50.475 178.6 6.1 185 21.6
2010-10-26 10:49:20 51°23.658 2°50.459 178.4 6.4 184 20.5
2010-10-26 10:50:20 51°23.554 2°50.442 179.4 6.4 185 18.7
2010-10-26 10:51:20 51°23.452 2°50.435 178 6 184 18.2
2010-10-26 10:52:20 51°23.353 2°50.425 177.4 5.9 180 17.6
2010-10-26 10:53:20 51°23.253 2°50.416 178.3 6.1 185 17.3
2010-10-26 10:54:20 51°23.151 2°50.407 177.1 6.2 182 16.4
2010-10-26 10:55:20 51°23.047 2°50.398 179.2 6.3 183 15
2010-10-26 10:56:20 51°22.943 2°50.394 177.7 6.2 181 14
2010-10-26 10:57:20 51°22.84 2°50.389 178 6.1 182 17.7
2010-10-26 10:58:20 51°22.738 2°50.382 178.2 6 182 20.5
2010-10-26 10:59:20 51°22.641 2°50.379 179 5.9 182 22.3
2010-10-26 11:00:20 51°22.543 2°50.373 177.9 5.8 181 23.3
2010-10-26 11:01:20 51°22.446 2°50.37 179.2 5.7 181 23.1
2010-10-26 11:02:20 51°22.347 2°50.366 178.7 5.9 183 23.5
2010-10-26 11:03:20 51°22.247 2°50.361 178 6.1 184 23.9
2010-10-26 11:04:20 51°22.149 2°50.358 178.7 6.1 181 24
2010-10-26 11:05:20 51°22.048 2°50.353 178.4 6 179 23.5
2010-10-26 11:06:20 51°21.947 2°50.35 177.9 6 179 23.2
2010-10-26 11:07:20 51°21.846 2°50.346 178.9 6.1 184 22.9
2010-10-26 11:08:20 51°21.745 2°50.346 177.6 6 181 23.1
2010-10-26 11:09:20 51°21.643 2°50.339 179 6.2 181 23.2
2010-10-26 11:10:20 51°21.542 2°50.333 178 6 184 23.8
2010-10-26 11:11:20 51°21.44 2°50.326 179.4 6.1 180 23.2
2010-10-26 11:12:20 51°21.339 2°50.318 178.1 6.1 183 23.8
2010-10-26 11:13:20 51°21.237 2°50.31 177.4 6 182 23.8
2010-10-26 11:14:20 51°21.137 2°50.306 178 5.9 184 23.8
2010-10-26 11:15:20 51°21.039 2°50.297 178.6 6 184 24.1
2010-10-26 11:16:20 51°20.939 2°50.29 177.2 6 183 24.1
2010-10-26 11:17:20 51°20.839 2°50.283 179 6 183 23
2010-10-26 11:18:20 51°20.742 2°50.288 164.3 5.8 170 22.5
2010-10-26 11:19:20 51°20.647 2°50.333 156.3 5.9 161 21.8
2010-10-26 11:20:20 51°20.554 2°50.382 157 5.9 164 20.3
2010-10-26 11:21:20 51°20.46 2°50.429 157.6 6 161 19.2
2010-10-26 11:22:20 51°20.366 2°50.476 158.2 5.8 163 17.9
2010-10-26 11:23:20 51°20.271 2°50.519 158.7 5.9 166 16.8
2010-10-26 11:24:20 51°20.176 2°50.567 158.7 6 163 16.2
2010-10-26 11:25:20 51°20.082 2°50.614 158.9 5.8 165 15.8
2010-10-26 11:26:20 51°19.989 2°50.661 160.2 5.9 161 14.8
2010-10-26 11:27:20 51°19.895 2°50.712 158.9 6 161 13.7
2010-10-26 11:28:20 51°19.802 2°50.766 157.8 5.9 159 13.2
2010-10-26 11:29:20 51°19.71 2°50.823 160.1 5.9 161 13.3
2010-10-26 11:30:20 51°19.617 2°50.879 159 6.1 159 14
2010-10-26 11:31:20 51°19.523 2°50.935 159.5 6.1 157 15.4
2010-10-26 11:32:20 51°19.429 2°50.99 159.5 6 157 15.5
2010-10-26 11:33:20 51°19.335 2°51.045 159.4 6.1 161 15.9
2010-10-26 11:34:20 51°19.24 2°51.097 160.3 6 164 15.9
2010-10-26 11:35:20 51°19.145 2°51.149 159.7 5.9 159 16.2
2010-10-26 11:36:20 51°19.048 2°51.198 159.8 6.2 163 15.9
2010-10-26 11:37:20 51°18.952 2°51.248 159 5.9 162 16.1
2010-10-26 11:38:20 51°18.856 2°51.297 158.9 6 160 15.4
2010-10-26 11:39:20 51°18.759 2°51.345 159 6 162 15.1
2010-10-26 11:40:20 51°18.663 2°51.393 159.3 6 165 15
2010-10-26 11:41:20 51°18.566 2°51.442 159.3 6 160 14.5
2010-10-26 11:42:20 51°18.471 2°51.493 159.6 6 162 14.1
2010-10-26 11:43:20 51°18.375 2°51.536 168 5.9 169 14.2
2010-10-26 11:44:20 51°18.28 2°51.56 170.7 5.7 173 13.4
2010-10-26 11:45:20 51°18.184 2°51.585 170.4 5.8 170 12.9
2010-10-26 11:46:20 51°18.089 2°51.613 169.5 5.7 168 12.4
2010-10-26 11:47:20 51°17.994 2°51.645 169.9 5.7 168 12.1
2010-10-26 11:48:20 51°17.9 2°51.676 170.1 5.8 168 11.8
2010-10-26 11:49:20 51°17.806 2°51.707 169.9 5.8 170 11.8
2010-10-26 11:50:20 51°17.713 2°51.744 169.4 5.8 165 11.8
2010-10-26 11:51:20 51°17.618 2°51.762 179.8 5.6 176 11.1
2010-10-26 11:52:20 51°17.521 2°51.77 179.9 5.9 179 12
2010-10-26 11:53:20 51°17.424 2°51.777 180.6 6 178 12.1
2010-10-26 11:54:20 51°17.327 2°51.786 179.8 5.9 177 12.9
2010-10-26 11:55:20 51°17.23 2°51.796 180 5.8 174 12.2
2010-10-26 11:56:20 51°17.133 2°51.806 179.2 5.8 175 12.6
2010-10-26 11:57:20 51°17.036 2°51.82 178.7 5.7 175 12.2
2010-10-26 11:58:20 51°16.941 2°51.836 180.2 5.8 172 12.5
2010-10-26 11:59:20 51°16.845 2°51.849 180.1 5.7 173 12.5
2010-10-26 12:00:20 51°16.748 2°51.867 179.1 5.9 171 12.5
2010-10-26 12:01:20 51°16.654 2°51.9 169.5 6 162 13
2010-10-26 12:02:20 51°16.56 2°51.951 168.5 6 161 12.2
2010-10-26 12:03:20 51°16.468 2°52.003 169 5.8 159 13.2
2010-10-26 12:04:20 51°16.377 2°52.057 169.1 5.8 156 14.1
2010-10-26 12:05:20 51°16.289 2°52.107 169.3 5.7 159 14.1
2010-10-26 12:06:20 51°16.199 2°52.161 169.2 6 158 14.4
2010-10-26 12:07:20 51°16.105 2°52.214 169 6 160 14.3
2010-10-26 12:08:20 51°16.009 2°52.27 169.2 6 161 14.3
2010-10-26 12:09:20 51°15.915 2°52.325 168.8 6.1 159 14.5
2010-10-26 12:10:20 51°15.821 2°52.379 169.9 6 158 14.3
2010-10-26 12:11:20 51°15.727 2°52.437 169 6.1 158 14.7
2010-10-26 12:12:20 51°15.635 2°52.494 169.5 5.8 159 14
2010-10-26 12:13:20 51°15.542 2°52.514 187.7 5.5 183 14.1
2010-10-26 12:14:20 51°15.447 2°52.511 188.9 6.3 181 13.8
2010-10-26 12:15:20 51°15.338 2°52.506 189.7 6.6 186 13.5
2010-10-26 12:16:20 51°15.241 2°52.449 215.7 6.1 214 13.2
2010-10-26 12:17:20 51°15.163 2°52.348 221.2 6.1 220 13.2
2010-10-26 12:18:20 51°15.093 2°52.236 233.4 5.9 240 13.2
2010-10-26 12:19:20 51°15.049 2°52.094 241.9 5.8 246 13
2010-10-26 12:20:20 51°15.006 2°51.948 243.9 6 247 13.5
2010-10-26 12:21:20 51°14.97 2°51.799 245.8 6 249 13.8
2010-10-26 12:22:20 51°14.934 2°51.649 245 6 248 13.3
2010-10-26 12:23:20 51°14.897 2°51.5 244.9 6 247 13.7
2010-10-26 12:24:20 51°14.86 2°51.352 244.8 5.9 245 13.7
2010-10-26 12:25:20 51°14.823 2°51.204 244.6 6 249 13.8
2010-10-26 12:26:20 51°14.785 2°51.057 244.3 6.1 250 13.9
2010-10-26 12:27:20 51°14.748 2°50.91 244 6 250 13.7
2010-10-26 12:28:20 51°14.711 2°50.763 244.1 6 248 14.1
2010-10-26 12:29:20 51°14.677 2°50.614 247.8 6 253 14.1
2010-10-26 12:30:20 51°14.654 2°50.457 251.1 6.2 259 14.3
2010-10-26 12:31:20 51°14.631 2°50.302 251 6 257 14.4
2010-10-26 12:32:20 51°14.608 2°50.146 250.3 6 256 14.4
2010-10-26 12:33:20 51°14.584 2°49.992 250.6 6 256 14.6
2010-10-26 12:34:20 51°14.56 2°49.838 250.1 6 256 14.7
2010-10-26 12:35:20 51°14.537 2°49.683 250.6 6 256 14.7
2010-10-26 12:36:20 51°14.515 2°49.528 250.6 5.9 258 14.8
2010-10-26 12:37:20 51°14.493 2°49.375 249.9 5.9 258 14.7
2010-10-26 12:38:20 51°14.47 2°49.225 250.2 5.8 257 14.6
2010-10-26 12:39:20 51°14.448 2°49.076 250.6 5.7 257 14.7
2010-10-26 12:40:20 51°14.429 2°48.93 250.7 5.6 258 14.9
2010-10-26 12:41:20 51°14.409 2°48.785 250.3 5.6 258 14.7
2010-10-26 12:42:20 51°14.389 2°48.64 249.9 5.6 256 14.9
2010-10-26 12:43:20 51°14.368 2°48.492 250.4 5.7 258 14.6
2010-10-26 12:44:20 51°14.346 2°48.341 250.5 5.9 257 14.8
2010-10-26 12:45:20 51°14.325 2°48.188 250.5 5.9 258 14.5
2010-10-26 12:46:20 51°14.304 2°48.036 250.2 5.8 256 14.4
2010-10-26 12:47:20 51°14.281 2°47.881 250 6 257 14.5
2010-10-26 12:48:20 51°14.258 2°47.725 250.3 6 255 14.4
2010-10-26 12:49:20 51°14.233 2°47.57 250.4 6.1 257 14
2010-10-26 12:50:20 51°14.21 2°47.416 250.5 6 255 13.7
2010-10-26 12:51:20 51°14.185 2°47.262 250.6 5.9 257 12.7
2010-10-26 12:52:20 51°14.161 2°47.108 250.4 6 255 12.6
2010-10-26 12:53:20 51°14.137 2°46.955 250.4 6 256 12.3
2010-10-26 12:54:20 51°14.112 2°46.802 250.5 5.9 257 12.3
2010-10-26 12:55:20 51°14.089 2°46.65 250.5 5.9 254 12
2010-10-26 12:56:20 51°14.065 2°46.498 250.7 5.9 256 12
2010-10-26 12:57:20 51°14.041 2°46.345 250.5 5.9 256 12.4
2010-10-26 12:58:20 51°14.018 2°46.192 250 6 256 12.7
2010-10-26 12:59:20 51°13.995 2°46.036 250.3 6 255 12.9
2010-10-26 13:00:20 51°13.97 2°45.88 250.5 6.1 258 13.5
2010-10-26 13:01:20 51°13.946 2°45.724 250.2 6.1 255 13.9
2010-10-26 13:02:20 51°13.915 2°45.573 245.6 6 251 13.7
2010-10-26 13:03:20 51°13.882 2°45.421 245.7 6 249 14.1
2010-10-26 13:04:20 51°13.849 2°45.271 246.1 6 252 14.2
2010-10-26 13:05:20 51°13.816 2°45.12 246.1 6 249 14.6
2010-10-26 13:06:20 51°13.784 2°44.969 246.5 6.1 250 14.4
2010-10-26 13:07:20 51°13.751 2°44.817 246.2 6.1 251 14.5
2010-10-26 13:08:20 51°13.718 2°44.666 246.4 6 251 14.5
2010-10-26 13:09:20 51°13.685 2°44.514 246 6 251 14.2
2010-10-26 13:10:20 51°13.652 2°44.363 246.1 6 251 13.7
2010-10-26 13:11:20 51°13.619 2°44.212 246.1 6 250 13.5
2010-10-26 13:12:20 51°13.585 2°44.06 246.2 6.1 249 13
2010-10-26 13:13:20 51°13.551 2°43.908 246.1 6 251 12.5
2010-10-26 13:14:20 51°13.518 2°43.758 246.5 5.9 250 12.1
2010-10-26 13:15:20 51°13.485 2°43.609 246.3 6 249 12.6
2010-10-26 13:16:20 51°13.452 2°43.459 244.3 6 250 12.6
2010-10-26 13:17:20 51°13.414 2°43.313 243.2 6 249 12.7
2010-10-26 13:18:20 51°13.377 2°43.167 242.5 5.9 247 13.3
2010-10-26 13:19:20 51°13.339 2°43.022 243.2 5.9 247 13.5
2010-10-26 13:20:20 51°13.301 2°42.874 242.9 6.1 247 13.8
2010-10-26 13:21:20 51°13.263 2°42.726 243.3 6 248 13.8
2010-10-26 13:22:20 51°13.227 2°42.58 243.1 6 248 14.2
2010-10-26 13:23:20 51°13.19 2°42.434 243.2 5.9 249 14.4
2010-10-26 13:24:20 51°13.154 2°42.287 244 5.9 249 14.4
2010-10-26 13:25:20 51°13.118 2°42.14 243.2 6 250 14.5
2010-10-26 13:26:20 51°13.082 2°41.993 243.9 5.9 249 14.6
2010-10-26 13:27:20 51°13.046 2°41.847 243.1 5.9 247 14.8
2010-10-26 13:28:20 51°13.011 2°41.699 243.4 5.8 248 14.8
2010-10-26 13:29:20 51°12.975 2°41.552 243.5 6 249 15.3
2010-10-26 13:30:20 51°12.941 2°41.404 243.7 6 249 15.6
2010-10-26 13:31:20 51°12.906 2°41.257 243.8 5.9 249 15.5
2010-10-26 13:32:20 51°12.871 2°41.11 243.3 5.9 250 15.4
2010-10-26 13:33:20 51°12.836 2°40.96 243.6 6.1 251 15.4
2010-10-26 13:34:20 51°12.8 2°40.812 242.5 6 250 15.4
2010-10-26 13:35:20 51°12.765 2°40.665 242.7 5.9 249 15.8
2010-10-26 13:36:20 51°12.732 2°40.517 243.7 5.9 251 15.5
2010-10-26 13:37:20 51°12.697 2°40.368 243.6 6 249 15.5
2010-10-26 13:38:20 51°12.661 2°40.22 240.5 6 247 15.6
2010-10-26 13:39:20 51°12.616 2°40.084 237.4 5.8 243 15.8
2010-10-26 13:40:20 51°12.571 2°39.945 238 5.9 245 15.4
2010-10-26 13:41:20 51°12.528 2°39.807 238.2 5.8 243 15.7
2010-10-26 13:42:20 51°12.484 2°39.67 238.4 5.8 243 15.5
2010-10-26 13:43:20 51°12.431 2°39.541 230.9 5.9 236 16
2010-10-26 13:44:20 51°12.373 2°39.42 230.4 5.8 232 15.7
2010-10-26 13:45:20 51°12.316 2°39.297 230.9 5.7 233 15.7
2010-10-26 13:46:20 51°12.259 2°39.173 231 5.8 232 15.8
2010-10-26 13:47:20 51°12.202 2°39.049 230.4 5.7 233 16.1
2010-10-26 13:48:20 51°12.143 2°38.921 231.3 6.3 234 15.9
2010-10-26 13:49:20 51°12.079 2°38.784 231.6 6.4 232 16.2
2010-10-26 13:50:20 51°12.016 2°38.644 231.3 6.5 234 15.9
2010-10-26 13:51:20 51°11.951 2°38.503 231.1 6.4 234 16.4
2010-10-26 13:52:20 51°11.892 2°38.369 231.7 6.1 233 16.6
2010-10-26 13:53:20 51°11.835 2°38.238 231 6.1 235 16.6
2010-10-26 13:54:20 51°11.777 2°38.106 231.2 6 236 16.7
2010-10-26 13:55:20 51°11.718 2°37.976 231.6 6 234 16.6
2010-10-26 13:56:20 51°11.662 2°37.844 231.5 6.2 236 16.9
2010-10-26 13:57:20 51°11.602 2°37.712 230.9 6.2 235 17
2010-10-26 13:58:20 51°11.542 2°37.579 231.6 6.1 234 17
2010-10-26 13:59:20 51°11.484 2°37.448 230.8 6.1 235 17.1
2010-10-26 14:00:20 51°11.425 2°37.314 231.2 6.2 235 16.7
2010-10-26 14:01:20 51°11.367 2°37.181 231.3 6.1 235 16.7
2010-10-26 14:02:20 51°11.307 2°37.049 231.1 6.2 236 16.4
2010-10-26 14:03:20 51°11.246 2°36.918 231.2 6.2 234 16.2
2010-10-26 14:04:20 51°11.186 2°36.784 231 6.2 237 15.8
2010-10-26 14:05:20 51°11.124 2°36.65 230.9 6.3 234 15.4
2010-10-26 14:06:20 51°11.063 2°36.515 231.6 6.2 234 15.3
2010-10-26 14:07:20 51°11.002 2°36.382 229.9 6.1 232 15.2
2010-10-26 14:08:20 51°10.941 2°36.249 231.6 6.4 235 14.8
2010-10-26 14:09:20 51°10.879 2°36.116 230.8 6.2 232 14.4
2010-10-26 14:10:20 51°10.817 2°35.981 231.1 6.3 235 14
2010-10-26 14:11:20 51°10.757 2°35.845 231.8 6.3 234 13.7
2010-10-26 14:12:20 51°10.693 2°35.713 222.9 6.1 221 13.5
2010-10-26 14:13:20 51°10.597 2°35.652 199.4 6.5 194 13.3
2010-10-26 14:14:20 51°10.493 2°35.612 198.6 6.2 193 13.5
2010-10-26 14:15:20 51°10.389 2°35.571 198.4 6.5 192 14.1
2010-10-26 14:16:20 51°10.286 2°35.532 199.1 6.4 193 14.2
2010-10-26 14:17:20 51°10.181 2°35.508 185.6 6.6 177 14.2
2010-10-26 14:18:20 51°10.069 2°35.535 178 6.8 168 15.2
2010-10-26 14:19:20 51°9.969 2°35.605 158.3 6.4 142 20.2
2010-10-26 14:20:20 51°9.891 2°35.716 149.6 6.2 130 21.4
2010-10-26 14:21:20 51°9.848 2°35.88 122.7 6.8 107 21.5
2010-10-26 14:22:20 51°9.818 2°36.046 121 6.2 108 21.1
2010-10-26 14:23:20 51°9.803 2°36.212 101 6.6 90 20.6
2010-10-26 14:24:20 51°9.808 2°36.386 95 6.6 88 20.8
2010-10-26 14:25:20 51°9.826 2°36.56 85.2 6.7 79 20.6
2010-10-26 14:26:20 51°9.85 2°36.733 84.9 6.5 77 20.7
2010-10-26 14:27:20 51°9.87 2°36.897 87.8 6.2 79 20.3
2010-10-26 14:28:20 51°9.888 2°37.059 86.2 6.2 78 20
2010-10-26 14:29:20 51°9.909 2°37.221 86.3 6.2 79 20
2010-10-26 14:30:20 51°9.928 2°37.383 86.5 6.2 79 20.1
2010-10-26 14:31:20 51°9.948 2°37.543 85.5 6.1 80 20.1
2010-10-26 14:32:20 51°9.969 2°37.702 85.8 6.1 79 19.7
2010-10-26 14:33:20 51°9.989 2°37.861 85.9 6.2 78 19.4
2010-10-26 14:34:20 51°10.009 2°38.021 86.8 6.2 79 19.3
2010-10-26 14:35:20 51°10.028 2°38.181 86.6 6.1 80 19.2
2010-10-26 14:36:20 51°10.047 2°38.341 86.6 6.1 80 19.1
2010-10-26 14:37:20 51°10.068 2°38.502 85.2 6.3 78 18.5
2010-10-26 14:38:20 51°10.09 2°38.667 85.7 6.5 78 18.3
2010-10-26 14:39:20 51°10.115 2°38.838 85.7 6.7 78 18
2010-10-26 14:40:20 51°10.138 2°39.009 87.7 6.6 78 17.8
2010-10-26 14:41:20 51°10.159 2°39.179 87.3 6.5 79 17.5
2010-10-26 14:42:20 51°10.179 2°39.347 85.5 6.5 78 17
2010-10-26 14:43:20 51°10.213 2°39.572 74.8 11.2 72 16.4
2010-10-26 14:44:20 51°10.288 2°39.909 71.2 14.9 69 16
2010-10-26 14:45:20 51°10.366 2°40.284 72.3 14.8 72 15.4
2010-10-26 14:46:20 51°10.439 2°40.661 73.6 14.7 75 15
2010-10-26 14:47:20 51°10.509 2°41.038 73.7 14.7 75 15
2010-10-26 14:48:20 51°10.577 2°41.413 74.8 14.7 73 14.8
2010-10-26 14:49:20 51°10.645 2°41.783 74.8 14.5 74 14.5
2010-10-26 14:50:20 51°10.718 2°42.154 70.5 14.7 70 14.7
2010-10-26 14:51:20 51°10.807 2°42.516 68.2 14.7 68 14.6
2010-10-26 14:52:20 51°10.895 2°42.88 68.1 14.7 69 14.7
2010-10-26 14:53:20 51°10.983 2°43.246 69 14.7 69 14.8
2010-10-26 14:54:20 51°11.07 2°43.61 69.6 14.5 70 14.9
2010-10-26 14:55:20 51°11.154 2°43.972 70.2 14.7 69 14.8
2010-10-26 14:56:20 51°11.244 2°44.333 68.3 14.7 67 15.1
2010-10-26 14:57:20 51°11.331 2°44.695 68.8 14.5 71 15.2
2010-10-26 14:58:20 51°11.416 2°45.051 70 14.6 70 15.2
2010-10-26 14:59:20 51°11.503 2°45.409 68.6 14.5 68 15.1
2010-10-26 15:00:20 51°11.602 2°45.763 65.4 14.8 64 15.3
2010-10-26 15:01:20 51°11.703 2°46.113 64.9 14.6 66 15.2
2010-10-26 15:02:20 51°11.813 2°46.459 64.6 14.5 63 15.3
2010-10-26 15:03:20 51°11.914 2°46.816 66.9 14.6 65 15.1
2010-10-26 15:04:20 51°12.012 2°47.172 66.7 14.4 65 15
2010-10-26 15:05:20 51°12.114 2°47.528 65.4 14.9 66 15.1
2010-10-26 15:06:20 51°12.215 2°47.886 66.1 14.9 67 14.9
2010-10-26 15:07:20 51°12.319 2°48.245 66.5 15 65 14.8
2010-10-26 15:08:20 51°12.43 2°48.592 61 14.7 59 14.5
2010-10-26 15:09:20 51°12.557 2°48.928 58.6 14.8 53 14.4
2010-10-26 15:10:20 51°12.678 2°49.267 64 14.7 66 14.2
2010-10-26 15:11:20 51°12.783 2°49.616 65.4 14.4 67 14.1
2010-10-26 15:12:20 51°12.891 2°49.961 64.3 14.7 57 13.7
2010-10-26 15:13:20 51°13.009 2°50.288 63.3 14.2 62 13.6
2010-10-26 15:14:20 51°13.112 2°50.632 65.2 14.3 64 13.3
2010-10-26 15:15:20 51°13.219 2°50.976 63.2 14.5 63 13.3
2010-10-26 15:16:20 51°13.34 2°51.309 59.4 14.4 61 13.1
2010-10-26 15:17:20 51°13.46 2°51.644 59.5 14.7 57 12.8
2010-10-26 15:18:20 51°13.596 2°51.965 55.3 14.6 58 12.6
2010-10-26 15:19:20 51°13.736 2°52.282 55.4 14.5 55 12.6
2010-10-26 15:20:20 51°13.871 2°52.6 57.8 14.4 54 12.7
2010-10-26 15:21:20 51°14.009 2°52.913 56 14.5 52 12.3
2010-10-26 15:22:20 51°14.147 2°53.229 55.2 14.4 55 12.1
2010-10-26 15:23:20 51°14.286 2°53.545 56.7 14.6 52 11.9
2010-10-26 15:24:20 51°14.426 2°53.863 52.9 14.8 51 11.9
2010-10-26 15:25:20 51°14.57 2°54.176 58.9 14.8 61 12
2010-10-26 15:26:20 51°14.635 2°54.538 88.3 13.7 87 12.4
2010-10-26 15:27:20 51°14.582 2°54.886 122.7 13.1 122 13.8
2010-10-26 15:28:20 51°14.428 2°55.103 151 12.3 152 12.5
2010-10-26 15:29:20 51°14.265 2°55.271 143.6 10.7 145 12.3
2010-10-26 15:30:20 51°14.139 2°55.403 149 8.1 152 12.3
2010-10-26 15:31:20 51°14.019 2°55.493 154.3 8 155 12.4
2010-10-26 15:32:20 51°13.895 2°55.58 155.4 7.9 156 13.4
2010-10-26 15:33:20 51°13.795 2°55.666 143.6 6.1 143 13.9
2010-10-26 15:34:20 51°13.733 2°55.767 129.1 5 129 14.3
2010-10-26 15:35:20 51°13.691 2°55.863 120.1 4.3 118 10.8
2010-10-26 15:36:20 51°13.666 2°55.953 120 1.9 114 10.3